sensor_id;sensor_type;location;lat;lon;timestamp;P1;durP1;ratioP1;P2;durP2;ratioP2
52894;SDS011;38759;53.396;6.722;2024-03-08T00:02:34;57.28;;;27.45;;
52894;SDS011;38759;53.396;6.722;2024-03-08T00:05:04;59.90;;;26.75;;
52894;SDS011;38759;53.396;6.722;2024-03-08T00:07:30;59.58;;;25.77;;
52894;SDS011;38759;53.396;6.722;2024-03-08T00:09:56;57.72;;;24.27;;
52894;SDS011;38759;53.396;6.722;2024-03-08T00:12:21;59.85;;;28.00;;
52894;SDS011;38759;53.396;6.722;2024-03-08T00:14:47;58.22;;;27.33;;
52894;SDS011;38759;53.396;6.722;2024-03-08T00:17:13;58.67;;;25.88;;
52894;SDS011;38759;53.396;6.722;2024-03-08T00:19:40;66.15;;;29.17;;
52894;SDS011;38759;53.396;6.722;2024-03-08T00:22:06;62.85;;;30.27;;
52894;SDS011;38759;53.396;6.722;2024-03-08T00:24:33;62.97;;;27.83;;
52894;SDS011;38759;53.396;6.722;2024-03-08T00:26:58;55.65;;;26.55;;
52894;SDS011;38759;53.396;6.722;2024-03-08T00:29:24;61.53;;;27.98;;
52894;SDS011;38759;53.396;6.722;2024-03-08T00:31:50;61.65;;;27.83;;
52894;SDS011;38759;53.396;6.722;2024-03-08T00:34:15;59.13;;;26.80;;
52894;SDS011;38759;53.396;6.722;2024-03-08T00:36:41;69.20;;;27.75;;
52894;SDS011;38759;53.396;6.722;2024-03-08T00:39:07;56.63;;;29.17;;
52894;SDS011;38759;53.396;6.722;2024-03-08T00:41:36;61.25;;;27.88;;
52894;SDS011;38759;53.396;6.722;2024-03-08T00:44:02;59.55;;;28.85;;
52894;SDS011;38759;53.396;6.722;2024-03-08T00:46:29;58.45;;;28.40;;
52894;SDS011;38759;53.396;6.722;2024-03-08T00:48:56;58.83;;;28.73;;
52894;SDS011;38759;53.396;6.722;2024-03-08T00:51:22;57.97;;;27.52;;
52894;SDS011;38759;53.396;6.722;2024-03-08T00:53:48;66.78;;;29.02;;
52894;SDS011;38759;53.396;6.722;2024-03-08T00:56:13;61.22;;;27.17;;
52894;SDS011;38759;53.396;6.722;2024-03-08T00:58:39;56.72;;;24.63;;
52894;SDS011;38759;53.396;6.722;2024-03-08T01:01:05;57.05;;;24.75;;
52894;SDS011;38759;53.396;6.722;2024-03-08T01:03:31;54.13;;;24.58;;
52894;SDS011;38759;53.396;6.722;2024-03-08T01:05:57;49.38;;;22.60;;
52894;SDS011;38759;53.396;6.722;2024-03-08T01:08:22;51.10;;;23.63;;
52894;SDS011;38759;53.396;6.722;2024-03-08T01:10:48;56.47;;;24.63;;
52894;SDS011;38759;53.396;6.722;2024-03-08T01:13:15;51.75;;;24.42;;
52894;SDS011;38759;53.396;6.722;2024-03-08T01:15:41;60.50;;;26.02;;
52894;SDS011;38759;53.396;6.722;2024-03-08T01:18:07;54.80;;;26.27;;
52894;SDS011;38759;53.396;6.722;2024-03-08T01:20:33;54.40;;;26.75;;
52894;SDS011;38759;53.396;6.722;2024-03-08T01:22:58;59.78;;;26.73;;
52894;SDS011;38759;53.396;6.722;2024-03-08T01:25:24;51.25;;;26.08;;
52894;SDS011;38759;53.396;6.722;2024-03-08T01:27:50;48.70;;;23.98;;
52894;SDS011;38759;53.396;6.722;2024-03-08T01:30:15;53.55;;;22.95;;
52894;SDS011;38759;53.396;6.722;2024-03-08T01:32:42;48.53;;;22.67;;
52894;SDS011;38759;53.396;6.722;2024-03-08T01:35:09;49.97;;;22.55;;
52894;SDS011;38759;53.396;6.722;2024-03-08T01:37:35;49.00;;;20.30;;
52894;SDS011;38759;53.396;6.722;2024-03-08T01:40:01;50.10;;;24.15;;
52894;SDS011;38759;53.396;6.722;2024-03-08T01:42:28;44.90;;;22.90;;
52894;SDS011;38759;53.396;6.722;2024-03-08T01:44:54;54.20;;;24.38;;
52894;SDS011;38759;53.396;6.722;2024-03-08T01:47:21;47.20;;;23.38;;
52894;SDS011;38759;53.396;6.722;2024-03-08T01:49:50;50.78;;;24.60;;
52894;SDS011;38759;53.396;6.722;2024-03-08T01:52:16;49.17;;;24.52;;
52894;SDS011;38759;53.396;6.722;2024-03-08T01:54:45;52.00;;;26.05;;
52894;SDS011;38759;53.396;6.722;2024-03-08T01:57:11;49.72;;;23.33;;
52894;SDS011;38759;53.396;6.722;2024-03-08T01:59:39;46.13;;;23.27;;
52894;SDS011;38759;53.396;6.722;2024-03-08T02:02:05;53.38;;;24.70;;
52894;SDS011;38759;53.396;6.722;2024-03-08T02:04:34;50.38;;;23.20;;
52894;SDS011;38759;53.396;6.722;2024-03-08T02:07:01;51.20;;;24.15;;
52894;SDS011;38759;53.396;6.722;2024-03-08T02:09:30;49.33;;;24.63;;
52894;SDS011;38759;53.396;6.722;2024-03-08T02:11:55;46.67;;;23.77;;
52894;SDS011;38759;53.396;6.722;2024-03-08T02:14:22;45.50;;;23.33;;
52894;SDS011;38759;53.396;6.722;2024-03-08T02:16:48;46.85;;;23.55;;
52894;SDS011;38759;53.396;6.722;2024-03-08T02:19:16;45.65;;;23.67;;
52894;SDS011;38759;53.396;6.722;2024-03-08T02:21:42;47.38;;;22.98;;
52894;SDS011;38759;53.396;6.722;2024-03-08T02:24:08;46.20;;;21.85;;
52894;SDS011;38759;53.396;6.722;2024-03-08T02:26:35;41.70;;;18.95;;
52894;SDS011;38759;53.396;6.722;2024-03-08T02:29:01;42.97;;;18.75;;
52894;SDS011;38759;53.396;6.722;2024-03-08T02:31:27;46.35;;;21.73;;
52894;SDS011;38759;53.396;6.722;2024-03-08T02:33:52;41.63;;;20.45;;
52894;SDS011;38759;53.396;6.722;2024-03-08T02:36:18;46.78;;;20.77;;
52894;SDS011;38759;53.396;6.722;2024-03-08T02:38:44;49.15;;;22.10;;
52894;SDS011;38759;53.396;6.722;2024-03-08T02:41:09;43.80;;;21.75;;
52894;SDS011;38759;53.396;6.722;2024-03-08T02:43:35;40.22;;;20.08;;
52894;SDS011;38759;53.396;6.722;2024-03-08T02:46:01;53.45;;;22.88;;
52894;SDS011;38759;53.396;6.722;2024-03-08T02:48:27;43.42;;;21.45;;
52894;SDS011;38759;53.396;6.722;2024-03-08T02:50:52;43.67;;;20.00;;
52894;SDS011;38759;53.396;6.722;2024-03-08T02:53:18;44.40;;;21.63;;
52894;SDS011;38759;53.396;6.722;2024-03-08T02:55:44;43.45;;;21.92;;
52894;SDS011;38759;53.396;6.722;2024-03-08T02:58:10;47.83;;;21.98;;
52894;SDS011;38759;53.396;6.722;2024-03-08T03:00:42;46.58;;;22.52;;
52894;SDS011;38759;53.396;6.722;2024-03-08T03:03:09;46.08;;;21.25;;
52894;SDS011;38759;53.396;6.722;2024-03-08T03:05:35;41.65;;;20.90;;
52894;SDS011;38759;53.396;6.722;2024-03-08T03:08:00;45.60;;;22.35;;
52894;SDS011;38759;53.396;6.722;2024-03-08T03:10:26;47.15;;;21.83;;
52894;SDS011;38759;53.396;6.722;2024-03-08T03:12:52;42.63;;;21.35;;
52894;SDS011;38759;53.396;6.722;2024-03-08T03:15:18;43.95;;;20.83;;
52894;SDS011;38759;53.396;6.722;2024-03-08T03:17:47;43.67;;;20.63;;
52894;SDS011;38759;53.396;6.722;2024-03-08T03:20:15;44.53;;;20.63;;
52894;SDS011;38759;53.396;6.722;2024-03-08T03:22:48;39.92;;;19.85;;
52894;SDS011;38759;53.396;6.722;2024-03-08T03:25:20;41.90;;;18.70;;
52894;SDS011;38759;53.396;6.722;2024-03-08T03:27:51;34.75;;;17.35;;
52894;SDS011;38759;53.396;6.722;2024-03-08T03:30:17;46.42;;;17.67;;
52894;SDS011;38759;53.396;6.722;2024-03-08T03:32:49;43.83;;;20.60;;
52894;SDS011;38759;53.396;6.722;2024-03-08T03:35:19;38.75;;;18.17;;
52894;SDS011;38759;53.396;6.722;2024-03-08T03:37:48;39.88;;;17.67;;
52894;SDS011;38759;53.396;6.722;2024-03-08T03:40:29;38.67;;;18.40;;
52894;SDS011;38759;53.396;6.722;2024-03-08T03:42:56;42.00;;;17.38;;
52894;SDS011;38759;53.396;6.722;2024-03-08T03:45:22;37.30;;;16.88;;
52894;SDS011;38759;53.396;6.722;2024-03-08T03:47:48;38.42;;;16.25;;
52894;SDS011;38759;53.396;6.722;2024-03-08T03:50:14;38.78;;;18.70;;
52894;SDS011;38759;53.396;6.722;2024-03-08T03:52:40;37.95;;;17.83;;
52894;SDS011;38759;53.396;6.722;2024-03-08T03:55:07;40.38;;;17.08;;
52894;SDS011;38759;53.396;6.722;2024-03-08T03:57:33;40.35;;;19.88;;
52894;SDS011;38759;53.396;6.722;2024-03-08T03:59:59;40.15;;;21.27;;
52894;SDS011;38759;53.396;6.722;2024-03-08T04:02:27;48.38;;;20.88;;
52894;SDS011;38759;53.396;6.722;2024-03-08T04:04:53;55.60;;;20.77;;
52894;SDS011;38759;53.396;6.722;2024-03-08T04:07:19;39.42;;;19.73;;
52894;SDS011;38759;53.396;6.722;2024-03-08T04:09:45;38.35;;;17.77;;
52894;SDS011;38759;53.396;6.722;2024-03-08T04:12:11;42.08;;;17.83;;
52894;SDS011;38759;53.396;6.722;2024-03-08T04:14:38;55.70;;;18.38;;
52894;SDS011;38759;53.396;6.722;2024-03-08T04:17:06;37.50;;;17.25;;
52894;SDS011;38759;53.396;6.722;2024-03-08T04:19:33;36.28;;;17.13;;
52894;SDS011;38759;53.396;6.722;2024-03-08T04:22:00;43.72;;;17.73;;
52894;SDS011;38759;53.396;6.722;2024-03-08T04:24:26;39.17;;;19.58;;
52894;SDS011;38759;53.396;6.722;2024-03-08T04:26:52;46.05;;;20.48;;
52894;SDS011;38759;53.396;6.722;2024-03-08T04:29:18;44.67;;;20.05;;
52894;SDS011;38759;53.396;6.722;2024-03-08T04:31:44;47.97;;;20.58;;
52894;SDS011;38759;53.396;6.722;2024-03-08T04:34:10;49.42;;;20.02;;
52894;SDS011;38759;53.396;6.722;2024-03-08T04:36:36;43.13;;;19.15;;
52894;SDS011;38759;53.396;6.722;2024-03-08T04:39:02;47.20;;;20.48;;
52894;SDS011;38759;53.396;6.722;2024-03-08T04:41:27;39.15;;;19.60;;
52894;SDS011;38759;53.396;6.722;2024-03-08T04:43:55;38.33;;;18.98;;
52894;SDS011;38759;53.396;6.722;2024-03-08T04:46:23;43.25;;;19.80;;
52894;SDS011;38759;53.396;6.722;2024-03-08T04:48:49;43.08;;;21.05;;
52894;SDS011;38759;53.396;6.722;2024-03-08T04:51:14;44.05;;;20.77;;
52894;SDS011;38759;53.396;6.722;2024-03-08T04:53:40;40.35;;;19.08;;
52894;SDS011;38759;53.396;6.722;2024-03-08T04:56:06;42.85;;;20.33;;
52894;SDS011;38759;53.396;6.722;2024-03-08T04:58:33;37.50;;;18.95;;
52894;SDS011;38759;53.396;6.722;2024-03-08T05:01:01;41.28;;;20.40;;
52894;SDS011;38759;53.396;6.722;2024-03-08T05:03:27;46.65;;;20.90;;
52894;SDS011;38759;53.396;6.722;2024-03-08T05:05:53;38.45;;;18.60;;
52894;SDS011;38759;53.396;6.722;2024-03-08T05:08:19;39.42;;;19.63;;
52894;SDS011;38759;53.396;6.722;2024-03-08T05:10:45;37.08;;;19.52;;
52894;SDS011;38759;53.396;6.722;2024-03-08T05:13:11;42.85;;;19.30;;
52894;SDS011;38759;53.396;6.722;2024-03-08T05:15:38;43.10;;;18.65;;
52894;SDS011;38759;53.396;6.722;2024-03-08T05:18:04;41.20;;;17.88;;
52894;SDS011;38759;53.396;6.722;2024-03-08T05:20:30;39.05;;;17.58;;
52894;SDS011;38759;53.396;6.722;2024-03-08T05:22:56;37.08;;;16.23;;
52894;SDS011;38759;53.396;6.722;2024-03-08T05:25:25;38.75;;;16.98;;
52894;SDS011;38759;53.396;6.722;2024-03-08T05:27:51;39.33;;;18.85;;
52894;SDS011;38759;53.396;6.722;2024-03-08T05:30:17;40.97;;;18.73;;
52894;SDS011;38759;53.396;6.722;2024-03-08T05:32:43;41.33;;;19.67;;
52894;SDS011;38759;53.396;6.722;2024-03-08T05:35:10;38.22;;;19.10;;
52894;SDS011;38759;53.396;6.722;2024-03-08T05:37:37;44.35;;;20.33;;
52894;SDS011;38759;53.396;6.722;2024-03-08T05:40:05;37.75;;;19.00;;
52894;SDS011;38759;53.396;6.722;2024-03-08T05:42:34;43.30;;;20.05;;
52894;SDS011;38759;53.396;6.722;2024-03-08T05:45:03;40.63;;;19.73;;
52894;SDS011;38759;53.396;6.722;2024-03-08T05:47:31;38.38;;;18.80;;
52894;SDS011;38759;53.396;6.722;2024-03-08T05:49:58;43.25;;;20.05;;
52894;SDS011;38759;53.396;6.722;2024-03-08T05:52:24;43.58;;;18.63;;
52894;SDS011;38759;53.396;6.722;2024-03-08T05:54:51;42.58;;;19.98;;
52894;SDS011;38759;53.396;6.722;2024-03-08T05:57:17;39.65;;;17.52;;
52894;SDS011;38759;53.396;6.722;2024-03-08T05:59:43;37.72;;;19.30;;
52894;SDS011;38759;53.396;6.722;2024-03-08T06:02:08;41.13;;;19.45;;
52894;SDS011;38759;53.396;6.722;2024-03-08T06:04:34;37.90;;;19.65;;
52894;SDS011;38759;53.396;6.722;2024-03-08T06:07:00;37.38;;;17.42;;
52894;SDS011;38759;53.396;6.722;2024-03-08T06:09:28;38.88;;;17.33;;
52894;SDS011;38759;53.396;6.722;2024-03-08T06:11:54;37.17;;;17.70;;
52894;SDS011;38759;53.396;6.722;2024-03-08T06:14:20;39.25;;;18.58;;
52894;SDS011;38759;53.396;6.722;2024-03-08T06:16:46;37.70;;;19.92;;
52894;SDS011;38759;53.396;6.722;2024-03-08T06:19:13;42.20;;;17.80;;
52894;SDS011;38759;53.396;6.722;2024-03-08T06:21:39;37.95;;;17.05;;
52894;SDS011;38759;53.396;6.722;2024-03-08T06:24:04;45.05;;;16.23;;
52894;SDS011;38759;53.396;6.722;2024-03-08T06:26:30;35.35;;;16.80;;
52894;SDS011;38759;53.396;6.722;2024-03-08T06:28:56;39.28;;;18.65;;
52894;SDS011;38759;53.396;6.722;2024-03-08T06:31:23;39.60;;;16.90;;
52894;SDS011;38759;53.396;6.722;2024-03-08T06:33:49;36.90;;;18.15;;
52894;SDS011;38759;53.396;6.722;2024-03-08T06:36:18;35.75;;;16.33;;
52894;SDS011;38759;53.396;6.722;2024-03-08T06:38:46;40.92;;;17.48;;
52894;SDS011;38759;53.396;6.722;2024-03-08T06:41:15;35.55;;;16.55;;
52894;SDS011;38759;53.396;6.722;2024-03-08T06:43:45;38.53;;;16.67;;
52894;SDS011;38759;53.396;6.722;2024-03-08T06:46:11;40.95;;;16.25;;
52894;SDS011;38759;53.396;6.722;2024-03-08T06:48:38;37.67;;;16.05;;
52894;SDS011;38759;53.396;6.722;2024-03-08T06:51:04;39.60;;;15.88;;
52894;SDS011;38759;53.396;6.722;2024-03-08T06:53:30;39.50;;;19.55;;
52894;SDS011;38759;53.396;6.722;2024-03-08T06:55:56;36.50;;;17.67;;
52894;SDS011;38759;53.396;6.722;2024-03-08T06:58:23;43.28;;;19.23;;
52894;SDS011;38759;53.396;6.722;2024-03-08T07:00:49;45.22;;;18.15;;
52894;SDS011;38759;53.396;6.722;2024-03-08T07:03:17;43.38;;;18.25;;
52894;SDS011;38759;53.396;6.722;2024-03-08T07:05:43;39.90;;;19.73;;
52894;SDS011;38759;53.396;6.722;2024-03-08T07:08:09;43.38;;;20.00;;
52894;SDS011;38759;53.396;6.722;2024-03-08T07:10:35;39.92;;;18.67;;
52894;SDS011;38759;53.396;6.722;2024-03-08T07:13:02;39.42;;;18.52;;
52894;SDS011;38759;53.396;6.722;2024-03-08T07:15:28;39.35;;;18.42;;
52894;SDS011;38759;53.396;6.722;2024-03-08T07:17:54;36.67;;;17.23;;
52894;SDS011;38759;53.396;6.722;2024-03-08T07:20:20;34.65;;;16.33;;
52894;SDS011;38759;53.396;6.722;2024-03-08T07:22:46;41.13;;;19.77;;
52894;SDS011;38759;53.396;6.722;2024-03-08T07:25:13;41.28;;;19.95;;
52894;SDS011;38759;53.396;6.722;2024-03-08T07:27:55;41.78;;;20.23;;
52894;SDS011;38759;53.396;6.722;2024-03-08T07:30:25;45.13;;;19.63;;
52894;SDS011;38759;53.396;6.722;2024-03-08T07:33:10;38.42;;;17.75;;
52894;SDS011;38759;53.396;6.722;2024-03-08T07:35:39;40.08;;;16.88;;
52894;SDS011;38759;53.396;6.722;2024-03-08T07:38:06;42.58;;;18.98;;
52894;SDS011;38759;53.396;6.722;2024-03-08T07:40:39;44.45;;;19.35;;
52894;SDS011;38759;53.396;6.722;2024-03-08T07:45:35;40.50;;;20.73;;
52894;SDS011;38759;53.396;6.722;2024-03-08T07:48:02;41.42;;;19.70;;
52894;SDS011;38759;53.396;6.722;2024-03-08T07:50:28;43.20;;;20.95;;
52894;SDS011;38759;53.396;6.722;2024-03-08T07:52:54;47.50;;;20.27;;
52894;SDS011;38759;53.396;6.722;2024-03-08T07:55:20;39.80;;;18.70;;
52894;SDS011;38759;53.396;6.722;2024-03-08T07:57:49;43.03;;;21.88;;
52894;SDS011;38759;53.396;6.722;2024-03-08T08:00:15;42.65;;;21.85;;
52894;SDS011;38759;53.396;6.722;2024-03-08T08:02:45;44.47;;;22.13;;
52894;SDS011;38759;53.396;6.722;2024-03-08T08:05:11;39.45;;;20.48;;
52894;SDS011;38759;53.396;6.722;2024-03-08T08:07:37;48.28;;;21.15;;
52894;SDS011;38759;53.396;6.722;2024-03-08T08:10:02;40.10;;;21.55;;
52894;SDS011;38759;53.396;6.722;2024-03-08T08:12:31;48.08;;;20.50;;
52894;SDS011;38759;53.396;6.722;2024-03-08T08:14:59;40.88;;;19.90;;
52894;SDS011;38759;53.396;6.722;2024-03-08T08:17:25;43.60;;;22.38;;
52894;SDS011;38759;53.396;6.722;2024-03-08T08:19:51;42.65;;;22.58;;
52894;SDS011;38759;53.396;6.722;2024-03-08T08:22:17;46.75;;;22.52;;
52894;SDS011;38759;53.396;6.722;2024-03-08T08:24:43;51.55;;;21.35;;
52894;SDS011;38759;53.396;6.722;2024-03-08T08:27:12;46.05;;;21.67;;
52894;SDS011;38759;53.396;6.722;2024-03-08T08:29:37;41.33;;;20.95;;
52894;SDS011;38759;53.396;6.722;2024-03-08T08:32:03;40.45;;;19.05;;
52894;SDS011;38759;53.396;6.722;2024-03-08T08:34:29;40.88;;;19.17;;
52894;SDS011;38759;53.396;6.722;2024-03-08T08:36:56;37.90;;;19.00;;
52894;SDS011;38759;53.396;6.722;2024-03-08T08:39:22;43.72;;;19.10;;
52894;SDS011;38759;53.396;6.722;2024-03-08T08:41:48;43.13;;;18.17;;
52894;SDS011;38759;53.396;6.722;2024-03-08T08:44:13;46.40;;;20.52;;
52894;SDS011;38759;53.396;6.722;2024-03-08T08:46:40;43.15;;;20.75;;
52894;SDS011;38759;53.396;6.722;2024-03-08T08:49:06;37.55;;;19.38;;
52894;SDS011;38759;53.396;6.722;2024-03-08T08:51:35;38.83;;;20.70;;
52894;SDS011;38759;53.396;6.722;2024-03-08T08:54:01;35.05;;;18.98;;
52894;SDS011;38759;53.396;6.722;2024-03-08T08:56:27;43.85;;;20.67;;
52894;SDS011;38759;53.396;6.722;2024-03-08T08:58:53;38.28;;;19.25;;
52894;SDS011;38759;53.396;6.722;2024-03-08T09:01:20;43.28;;;19.52;;
52894;SDS011;38759;53.396;6.722;2024-03-08T09:03:45;40.90;;;18.73;;
52894;SDS011;38759;53.396;6.722;2024-03-08T09:06:15;42.50;;;21.35;;
52894;SDS011;38759;53.396;6.722;2024-03-08T09:08:42;41.30;;;19.13;;
52894;SDS011;38759;53.396;6.722;2024-03-08T09:11:09;41.70;;;20.10;;
52894;SDS011;38759;53.396;6.722;2024-03-08T09:13:35;40.90;;;21.63;;
52894;SDS011;38759;53.396;6.722;2024-03-08T09:16:01;41.88;;;21.30;;
52894;SDS011;38759;53.396;6.722;2024-03-08T09:18:30;42.08;;;20.73;;
52894;SDS011;38759;53.396;6.722;2024-03-08T09:20:57;41.97;;;21.15;;
52894;SDS011;38759;53.396;6.722;2024-03-08T09:23:23;41.80;;;21.88;;
52894;SDS011;38759;53.396;6.722;2024-03-08T09:25:50;38.97;;;21.02;;
52894;SDS011;38759;53.396;6.722;2024-03-08T09:28:16;41.70;;;22.33;;
52894;SDS011;38759;53.396;6.722;2024-03-08T09:30:42;40.70;;;21.42;;
52894;SDS011;38759;53.396;6.722;2024-03-08T09:33:09;43.40;;;19.98;;
52894;SDS011;38759;53.396;6.722;2024-03-08T09:35:36;39.80;;;19.58;;
52894;SDS011;38759;53.396;6.722;2024-03-08T09:38:02;39.78;;;19.67;;
52894;SDS011;38759;53.396;6.722;2024-03-08T09:40:29;43.28;;;23.25;;
52894;SDS011;38759;53.396;6.722;2024-03-08T09:42:55;45.08;;;21.20;;
52894;SDS011;38759;53.396;6.722;2024-03-08T09:45:22;45.70;;;22.70;;
52894;SDS011;38759;53.396;6.722;2024-03-08T09:47:50;41.65;;;22.25;;
52894;SDS011;38759;53.396;6.722;2024-03-08T09:50:16;41.80;;;24.52;;
52894;SDS011;38759;53.396;6.722;2024-03-08T09:52:43;53.40;;;25.90;;
52894;SDS011;38759;53.396;6.722;2024-03-08T09:55:12;43.78;;;22.02;;
52894;SDS011;38759;53.396;6.722;2024-03-08T09:57:38;43.05;;;22.10;;
52894;SDS011;38759;53.396;6.722;2024-03-08T10:00:05;38.42;;;22.48;;
52894;SDS011;38759;53.396;6.722;2024-03-08T10:02:48;45.42;;;22.10;;
52894;SDS011;38759;53.396;6.722;2024-03-08T10:05:18;42.00;;;22.55;;
52894;SDS011;38759;53.396;6.722;2024-03-08T10:07:45;40.97;;;22.13;;
52894;SDS011;38759;53.396;6.722;2024-03-08T10:10:11;43.90;;;23.55;;
52894;SDS011;38759;53.396;6.722;2024-03-08T10:12:37;41.25;;;23.23;;
52894;SDS011;38759;53.396;6.722;2024-03-08T10:15:07;42.75;;;22.60;;
52894;SDS011;38759;53.396;6.722;2024-03-08T10:17:34;43.70;;;21.42;;
52894;SDS011;38759;53.396;6.722;2024-03-08T10:20:00;38.42;;;20.98;;
52894;SDS011;38759;53.396;6.722;2024-03-08T10:22:27;39.25;;;21.10;;
52894;SDS011;38759;53.396;6.722;2024-03-08T10:24:54;41.58;;;20.60;;
52894;SDS011;38759;53.396;6.722;2024-03-08T10:27:20;41.25;;;21.20;;
52894;SDS011;38759;53.396;6.722;2024-03-08T10:29:49;39.67;;;20.98;;
52894;SDS011;38759;53.396;6.722;2024-03-08T10:32:16;40.63;;;22.63;;
52894;SDS011;38759;53.396;6.722;2024-03-08T10:34:42;42.92;;;23.70;;
52894;SDS011;38759;53.396;6.722;2024-03-08T10:37:12;42.97;;;23.58;;
52894;SDS011;38759;53.396;6.722;2024-03-08T10:39:42;43.88;;;21.80;;
52894;SDS011;38759;53.396;6.722;2024-03-08T10:42:18;36.53;;;20.65;;
52894;SDS011;38759;53.396;6.722;2024-03-08T10:44:53;41.50;;;24.58;;
52894;SDS011;38759;53.396;6.722;2024-03-08T10:47:46;33.63;;;20.50;;
52894;SDS011;38759;53.396;6.722;2024-03-08T10:50:23;42.50;;;22.77;;
52894;SDS011;38759;53.396;6.722;2024-03-08T10:52:52;40.83;;;23.60;;
52894;SDS011;38759;53.396;6.722;2024-03-08T10:55:23;41.55;;;22.58;;
52894;SDS011;38759;53.396;6.722;2024-03-08T10:57:51;40.03;;;22.10;;
52894;SDS011;38759;53.396;6.722;2024-03-08T11:00:18;39.95;;;24.13;;
52894;SDS011;38759;53.396;6.722;2024-03-08T11:02:51;38.08;;;23.08;;
52894;SDS011;38759;53.396;6.722;2024-03-08T11:08:19;38.30;;;20.77;;
52894;SDS011;38759;53.396;6.722;2024-03-08T11:10:46;37.28;;;20.15;;
52894;SDS011;38759;53.396;6.722;2024-03-08T11:13:39;40.93;;;23.50;;
52894;SDS011;38759;53.396;6.722;2024-03-08T11:16:07;42.00;;;24.48;;
52894;SDS011;38759;53.396;6.722;2024-03-08T11:18:37;41.40;;;23.83;;
52894;SDS011;38759;53.396;6.722;2024-03-08T11:21:05;36.92;;;22.30;;
52894;SDS011;38759;53.396;6.722;2024-03-08T11:23:37;38.30;;;21.38;;
52894;SDS011;38759;53.396;6.722;2024-03-08T11:26:17;40.45;;;20.85;;
52894;SDS011;38759;53.396;6.722;2024-03-08T11:28:43;36.58;;;21.33;;
52894;SDS011;38759;53.396;6.722;2024-03-08T11:33:35;36.83;;;23.83;;
52894;SDS011;38759;53.396;6.722;2024-03-08T11:36:10;37.17;;;20.98;;
52894;SDS011;38759;53.396;6.722;2024-03-08T11:38:43;40.80;;;21.05;;
52894;SDS011;38759;53.396;6.722;2024-03-08T11:41:09;37.75;;;20.75;;
52894;SDS011;38759;53.396;6.722;2024-03-08T11:43:42;39.05;;;22.42;;
52894;SDS011;38759;53.396;6.722;2024-03-08T11:46:08;41.25;;;21.77;;
52894;SDS011;38759;53.396;6.722;2024-03-08T11:48:34;36.35;;;21.35;;
52894;SDS011;38759;53.396;6.722;2024-03-08T11:51:03;37.65;;;20.83;;
52894;SDS011;38759;53.396;6.722;2024-03-08T11:53:30;32.63;;;19.33;;
52894;SDS011;38759;53.396;6.722;2024-03-08T11:58:38;38.55;;;22.58;;
52894;SDS011;38759;53.396;6.722;2024-03-08T12:03:40;32.70;;;21.48;;
52894;SDS011;38759;53.396;6.722;2024-03-08T12:06:09;37.17;;;21.63;;
52894;SDS011;38759;53.396;6.722;2024-03-08T12:08:36;34.65;;;25.50;;
52894;SDS011;38759;53.396;6.722;2024-03-08T12:11:03;34.40;;;21.30;;
52894;SDS011;38759;53.396;6.722;2024-03-08T12:13:33;38.92;;;20.75;;
52894;SDS011;38759;53.396;6.722;2024-03-08T12:16:02;30.98;;;23.65;;
52894;SDS011;38759;53.396;6.722;2024-03-08T12:18:32;35.55;;;21.35;;
52894;SDS011;38759;53.396;6.722;2024-03-08T12:21:09;35.45;;;22.88;;
52894;SDS011;38759;53.396;6.722;2024-03-08T12:23:42;31.73;;;19.83;;
52894;SDS011;38759;53.396;6.722;2024-03-08T12:26:13;31.25;;;19.83;;
52894;SDS011;38759;53.396;6.722;2024-03-08T12:28:44;27.90;;;22.80;;
52894;SDS011;38759;53.396;6.722;2024-03-08T12:31:14;32.25;;;20.67;;
52894;SDS011;38759;53.396;6.722;2024-03-08T12:33:49;31.50;;;19.10;;
52894;SDS011;38759;53.396;6.722;2024-03-08T12:36:16;30.15;;;22.70;;
52894;SDS011;38759;53.396;6.722;2024-03-08T12:38:48;27.33;;;21.80;;
52894;SDS011;38759;53.396;6.722;2024-03-08T12:41:18;29.77;;;19.98;;
52894;SDS011;38759;53.396;6.722;2024-03-08T12:43:45;31.20;;;20.45;;
52894;SDS011;38759;53.396;6.722;2024-03-08T12:46:17;29.92;;;19.98;;
52894;SDS011;38759;53.396;6.722;2024-03-08T12:48:45;28.08;;;21.88;;
52894;SDS011;38759;53.396;6.722;2024-03-08T12:51:14;23.92;;;20.65;;
52894;SDS011;38759;53.396;6.722;2024-03-08T12:53:44;30.95;;;20.25;;
52894;SDS011;38759;53.396;6.722;2024-03-08T12:56:14;28.73;;;19.17;;
52894;SDS011;38759;53.396;6.722;2024-03-08T12:58:58;27.65;;;18.63;;
52894;SDS011;38759;53.396;6.722;2024-03-08T13:01:25;30.17;;;18.70;;
52894;SDS011;38759;53.396;6.722;2024-03-08T13:03:52;27.67;;;21.80;;
52894;SDS011;38759;53.396;6.722;2024-03-08T13:06:21;29.92;;;18.33;;
52894;SDS011;38759;53.396;6.722;2024-03-08T13:08:50;24.38;;;20.65;;
52894;SDS011;38759;53.396;6.722;2024-03-08T13:11:20;26.48;;;21.55;;
52894;SDS011;38759;53.396;6.722;2024-03-08T13:13:46;30.90;;;21.00;;
52894;SDS011;38759;53.396;6.722;2024-03-08T13:16:12;30.30;;;20.08;;
52894;SDS011;38759;53.396;6.722;2024-03-08T13:18:42;26.38;;;18.08;;
52894;SDS011;38759;53.396;6.722;2024-03-08T13:21:08;24.85;;;20.13;;
52894;SDS011;38759;53.396;6.722;2024-03-08T13:23:36;31.00;;;20.67;;
52894;SDS011;38759;53.396;6.722;2024-03-08T13:26:09;26.90;;;20.92;;
52894;SDS011;38759;53.396;6.722;2024-03-08T13:28:50;30.00;;;21.13;;
52894;SDS011;38759;53.396;6.722;2024-03-08T13:31:21;33.85;;;19.92;;
52894;SDS011;38759;53.396;6.722;2024-03-08T13:33:47;25.80;;;20.95;;
52894;SDS011;38759;53.396;6.722;2024-03-08T13:36:13;24.65;;;20.50;;
52894;SDS011;38759;53.396;6.722;2024-03-08T13:38:43;24.38;;;19.83;;
52894;SDS011;38759;53.396;6.722;2024-03-08T13:41:13;23.73;;;19.95;;
52894;SDS011;38759;53.396;6.722;2024-03-08T13:43:40;24.80;;;20.77;;
52894;SDS011;38759;53.396;6.722;2024-03-08T13:46:06;24.08;;;20.10;;
52894;SDS011;38759;53.396;6.722;2024-03-08T13:48:33;28.05;;;18.85;;
52894;SDS011;38759;53.396;6.722;2024-03-08T13:50:59;22.65;;;18.17;;
52894;SDS011;38759;53.396;6.722;2024-03-08T13:53:25;24.60;;;19.92;;
52894;SDS011;38759;53.396;6.722;2024-03-08T13:55:51;26.23;;;19.52;;
52894;SDS011;38759;53.396;6.722;2024-03-08T13:58:17;28.20;;;18.98;;
52894;SDS011;38759;53.396;6.722;2024-03-08T14:00:43;25.27;;;18.85;;
52894;SDS011;38759;53.396;6.722;2024-03-08T14:03:11;27.10;;;20.45;;
52894;SDS011;38759;53.396;6.722;2024-03-08T14:05:41;25.20;;;20.38;;
52894;SDS011;38759;53.396;6.722;2024-03-08T14:08:07;23.25;;;20.13;;
52894;SDS011;38759;53.396;6.722;2024-03-08T14:10:37;25.13;;;21.50;;
52894;SDS011;38759;53.396;6.722;2024-03-08T14:13:03;26.75;;;20.77;;
52894;SDS011;38759;53.396;6.722;2024-03-08T14:15:36;29.73;;;19.08;;
52894;SDS011;38759;53.396;6.722;2024-03-08T14:18:06;26.23;;;19.90;;
52894;SDS011;38759;53.396;6.722;2024-03-08T14:20:32;25.80;;;19.98;;
52894;SDS011;38759;53.396;6.722;2024-03-08T14:22:58;25.17;;;20.33;;
52894;SDS011;38759;53.396;6.722;2024-03-08T14:25:24;24.73;;;20.77;;
52894;SDS011;38759;53.396;6.722;2024-03-08T14:27:50;25.83;;;19.52;;
52894;SDS011;38759;53.396;6.722;2024-03-08T14:30:23;24.88;;;20.45;;
52894;SDS011;38759;53.396;6.722;2024-03-08T14:33:03;23.50;;;20.23;;
52894;SDS011;38759;53.396;6.722;2024-03-08T14:35:37;24.00;;;20.30;;
52894;SDS011;38759;53.396;6.722;2024-03-08T14:38:04;29.73;;;19.23;;